createdAt,value
2022-09-28T00:00:25.307Z,973.67
2022-09-28T00:01:25.398Z,973.68
2022-09-28T00:02:25.362Z,973.63
2022-09-28T00:03:25.250Z,973.62
2022-09-28T00:04:25.257Z,973.59
2022-09-28T00:05:25.298Z,973.57
2022-09-28T00:06:25.223Z,973.53
2022-09-28T00:07:25.257Z,973.49
2022-09-28T00:08:25.207Z,973.46
2022-09-28T00:09:25.206Z,973.42
2022-09-28T00:10:25.166Z,973.42
2022-09-28T00:11:25.166Z,973.41
2022-09-28T00:12:25.163Z,973.33
2022-09-28T00:13:25.134Z,973.28
2022-09-28T00:14:25.153Z,973.22
2022-09-28T00:15:25.107Z,973.26
2022-09-28T00:16:25.123Z,973.23
2022-09-28T00:17:25.096Z,973.15
2022-09-28T00:18:25.074Z,973.17
2022-09-28T00:19:25.106Z,973.14
2022-09-28T00:20:25.044Z,973.14
2022-09-28T00:21:25.041Z,973.19
2022-09-28T00:22:25.017Z,973.17
2022-09-28T00:23:25.013Z,973.09
2022-09-28T00:24:27.698Z,973.06
2022-09-28T00:25:24.982Z,973.07
2022-09-28T00:26:24.963Z,973.10
2022-09-28T00:27:24.958Z,973.07
2022-09-28T00:28:25.910Z,973.08
2022-09-28T00:29:24.988Z,973.07
2022-09-28T00:30:24.912Z,973.10
2022-09-28T00:31:25.004Z,973.06
2022-09-28T00:32:24.901Z,973.09
2022-09-28T00:33:24.878Z,973.11
2022-09-28T00:34:24.887Z,973.10
2022-09-28T00:35:24.859Z,973.05
2022-09-28T00:36:24.848Z,972.97
2022-09-28T00:37:24.830Z,972.97
2022-09-28T00:38:24.817Z,972.98
2022-09-28T00:39:24.830Z,972.91
2022-09-28T00:40:24.861Z,972.90
2022-09-28T00:41:24.784Z,972.86
2022-09-28T00:42:24.748Z,972.79
2022-09-28T00:43:24.746Z,972.78
2022-09-28T00:44:24.756Z,972.78
2022-09-28T00:45:24.761Z,972.74
2022-09-28T00:46:24.721Z,972.76
2022-09-28T00:47:24.705Z,972.71
2022-09-28T00:48:24.697Z,972.73
2022-09-28T00:49:24.722Z,972.70
2022-09-28T00:50:24.907Z,972.68
2022-09-28T00:51:24.651Z,972.67
2022-09-28T00:52:24.638Z,972.63
2022-09-28T00:53:24.621Z,972.65
2022-09-28T00:54:24.594Z,972.59
2022-09-28T00:55:24.605Z,972.61
2022-09-28T00:56:24.582Z,972.63
2022-09-28T00:57:24.572Z,972.60
2022-09-28T00:58:24.556Z,972.60
2022-09-28T00:59:24.544Z,972.50
2022-09-28T01:00:24.563Z,972.49
2022-09-28T01:01:24.606Z,972.45
2022-09-28T01:02:24.544Z,972.42
2022-09-28T01:03:24.481Z,972.42
2022-09-28T01:04:29.199Z,972.39
2022-09-28T01:05:25.492Z,972.35
2022-09-28T01:06:24.490Z,972.31
2022-09-28T01:07:24.460Z,972.30
2022-09-28T01:08:24.455Z,972.19
2022-09-28T01:09:24.470Z,972.27
2022-09-28T01:10:24.437Z,972.26
2022-09-28T01:11:24.425Z,972.28
2022-09-28T01:12:24.389Z,972.31
2022-09-28T01:13:24.412Z,972.31
2022-09-28T01:14:24.327Z,972.36
2022-09-28T01:15:24.358Z,972.34
2022-09-28T01:16:24.338Z,972.26
2022-09-28T01:17:24.410Z,972.22
2022-09-28T01:18:24.295Z,972.18
2022-09-28T01:19:24.276Z,972.16
2022-09-28T01:20:24.273Z,972.19
2022-09-28T01:21:24.277Z,972.18
2022-09-28T01:22:24.234Z,972.15
2022-09-28T01:23:24.224Z,972.19
2022-09-28T01:24:24.215Z,972.21
2022-09-28T01:25:24.225Z,972.26
2022-09-28T01:26:24.193Z,972.24
2022-09-28T01:27:24.179Z,972.17
2022-09-28T01:28:24.184Z,972.19
2022-09-28T01:29:24.148Z,972.08
2022-09-28T01:30:24.156Z,972.06
2022-09-28T01:31:24.198Z,972.07
2022-09-28T01:32:24.110Z,972.04
2022-09-28T01:33:24.134Z,972.04
2022-09-28T01:34:24.092Z,971.98
2022-09-28T01:35:24.075Z,972.02
2022-09-28T01:36:24.076Z,972.03
2022-09-28T01:37:24.040Z,972.06
2022-09-28T01:38:24.073Z,972.01
2022-09-28T01:39:24.020Z,971.96
2022-09-28T01:40:24.089Z,971.95
2022-09-28T01:41:24.003Z,971.92
2022-09-28T01:42:24.003Z,971.90
2022-09-28T01:43:23.979Z,971.91
2022-09-28T01:44:23.965Z,971.85
2022-09-28T01:45:23.959Z,971.80
2022-09-28T01:46:23.969Z,971.79
2022-09-28T01:47:23.937Z,971.78
2022-09-28T01:48:23.907Z,971.77
2022-09-28T01:49:23.943Z,971.74
2022-09-28T01:50:23.884Z,971.71
2022-09-28T01:51:23.915Z,971.69
2022-09-28T01:52:23.855Z,971.65
2022-09-28T01:53:23.885Z,971.64
2022-09-28T01:54:23.817Z,971.63
2022-09-28T01:55:23.832Z,971.62
2022-09-28T01:56:23.851Z,971.63
2022-09-28T01:57:23.786Z,971.62
2022-09-28T01:58:23.767Z,971.62
2022-09-28T01:59:23.802Z,971.59
2022-09-28T02:00:23.764Z,971.59
2022-09-28T02:01:23.744Z,971.51
2022-09-28T02:02:23.794Z,971.47
2022-09-28T02:03:23.732Z,971.51
2022-09-28T02:04:23.711Z,971.50
2022-09-28T02:05:23.691Z,971.44
2022-09-28T02:06:23.674Z,971.40
2022-09-28T02:07:23.691Z,971.39
2022-09-28T02:08:23.652Z,971.34
2022-09-28T02:09:23.662Z,971.30
2022-09-28T02:10:23.621Z,971.29
2022-09-28T02:11:23.655Z,971.29
2022-09-28T02:12:23.599Z,971.28
2022-09-28T02:13:23.600Z,971.27
2022-09-28T02:14:23.573Z,971.19
2022-09-28T02:15:23.550Z,971.17
2022-09-28T02:16:23.643Z,971.19
2022-09-28T02:17:23.521Z,971.21
2022-09-28T02:18:23.520Z,971.18
2022-09-28T02:19:23.508Z,971.21
2022-09-28T02:20:23.488Z,971.23
2022-09-28T02:21:23.502Z,971.23
2022-09-28T02:22:23.514Z,971.21
2022-09-28T02:23:23.487Z,971.19
2022-09-28T02:24:23.437Z,971.17
2022-09-28T02:25:23.440Z,971.12
2022-09-28T02:26:23.426Z,971.13
2022-09-28T02:27:23.405Z,971.17
2022-09-28T02:28:23.421Z,971.14
2022-09-28T02:29:23.395Z,971.12
2022-09-28T02:30:23.356Z,971.19
2022-09-28T02:31:23.384Z,971.19
2022-09-28T02:32:23.347Z,971.22
2022-09-28T02:33:23.325Z,971.23
2022-09-28T02:34:23.314Z,971.18
2022-09-28T02:35:23.316Z,971.12
2022-09-28T02:36:23.296Z,971.16
2022-09-28T02:37:23.283Z,971.11
2022-09-28T02:38:23.263Z,971.09
2022-09-28T02:39:23.293Z,971.09
2022-09-28T02:40:23.312Z,971.08
2022-09-28T02:41:23.232Z,971.13
2022-09-28T02:42:23.212Z,971.09
2022-09-28T02:43:23.200Z,971.07
2022-09-28T02:44:23.272Z,971.06
2022-09-28T02:45:23.174Z,971.01
2022-09-28T02:46:23.170Z,971.00
2022-09-28T02:47:23.132Z,970.98
2022-09-28T02:48:41.261Z,971.03
2022-09-28T02:49:24.211Z,971.00
2022-09-28T02:50:23.135Z,970.98
2022-09-28T02:51:23.095Z,971.02
2022-09-28T02:52:23.079Z,971.05
2022-09-28T02:53:23.087Z,971.01
2022-09-28T02:54:23.100Z,971.04
2022-09-28T02:55:23.062Z,971.04
2022-09-28T02:56:23.028Z,971.12
2022-09-28T02:57:23.018Z,971.14
2022-09-28T02:58:23.005Z,971.07
2022-09-28T02:59:23.021Z,971.12
2022-09-28T03:00:22.997Z,971.15
2022-09-28T03:01:23.070Z,971.16
2022-09-28T03:02:23.007Z,971.15
2022-09-28T03:03:22.936Z,971.20
2022-09-28T03:04:23.897Z,971.18
2022-09-28T03:05:22.906Z,971.13
2022-09-28T03:06:22.896Z,971.19
2022-09-28T03:07:22.903Z,971.18
2022-09-28T03:08:22.907Z,971.16
2022-09-28T03:09:22.906Z,971.10
2022-09-28T03:10:22.853Z,971.11
2022-09-28T03:11:22.921Z,971.06
2022-09-28T03:12:22.823Z,971.06
2022-09-28T03:13:22.834Z,971.06
2022-09-28T03:14:22.811Z,971.03
2022-09-28T03:15:22.793Z,971.02
2022-09-28T03:16:22.846Z,971.02
2022-09-28T03:17:22.781Z,971.03
2022-09-28T03:18:22.752Z,971.05
2022-09-28T03:19:22.738Z,971.06
2022-09-28T03:20:22.718Z,971.04
2022-09-28T03:21:22.720Z,971.04
2022-09-28T03:22:22.709Z,971.03
2022-09-28T03:23:25.048Z,971.04
2022-09-28T03:24:22.686Z,971.04
2022-09-28T03:25:22.651Z,971.04
2022-09-28T03:26:22.691Z,971.03
2022-09-28T03:27:22.643Z,971.05
2022-09-28T03:28:22.612Z,971.09
2022-09-28T03:29:22.617Z,971.08
2022-09-28T03:30:22.591Z,971.03
2022-09-28T03:31:22.657Z,971.02
2022-09-28T03:32:22.568Z,970.99
2022-09-28T03:33:22.549Z,970.98
2022-09-28T03:34:22.551Z,970.96
2022-09-28T03:35:22.528Z,970.96
2022-09-28T03:36:22.528Z,971.00
2022-09-28T03:37:22.508Z,971.04
2022-09-28T03:38:22.486Z,971.02
2022-09-28T03:39:22.531Z,971.07
2022-09-28T03:40:22.516Z,971.07
2022-09-28T03:41:22.477Z,971.05
2022-09-28T03:42:22.462Z,971.03
2022-09-28T03:43:22.428Z,971.02
2022-09-28T03:44:22.468Z,971.00
2022-09-28T03:45:22.394Z,970.95
2022-09-28T03:46:22.403Z,970.95
2022-09-28T03:47:22.376Z,970.94
2022-09-28T03:48:25.104Z,970.93
2022-09-28T03:49:23.364Z,970.99
2022-09-28T03:50:22.332Z,971.00
2022-09-28T03:51:22.326Z,970.98
2022-09-28T03:52:22.320Z,970.95
2022-09-28T03:53:22.481Z,970.93
2022-09-28T03:54:22.293Z,970.95
2022-09-28T03:55:22.282Z,970.93
2022-09-28T03:56:22.291Z,970.98
2022-09-28T03:57:22.251Z,971.07
2022-09-28T03:58:22.239Z,971.06
2022-09-28T03:59:22.296Z,971.05
2022-09-28T04:00:22.268Z,971.06
2022-09-28T04:01:22.314Z,970.98
2022-09-28T04:02:22.287Z,970.97
2022-09-28T04:03:22.178Z,970.96
2022-09-28T04:04:22.169Z,970.96
2022-09-28T04:05:22.146Z,970.98
2022-09-28T04:06:22.159Z,970.96
2022-09-28T04:07:22.117Z,970.98
2022-09-28T04:08:22.116Z,970.97
2022-09-28T04:09:22.076Z,970.97
2022-09-28T04:10:22.105Z,970.98
2022-09-28T04:11:22.100Z,970.92
2022-09-28T04:12:22.091Z,970.98
2022-09-28T04:13:22.035Z,970.97
2022-09-28T04:14:22.046Z,970.97
2022-09-28T04:15:22.014Z,970.96
2022-09-28T04:16:22.083Z,970.98
2022-09-28T04:17:22.015Z,971.03
2022-09-28T04:18:22.007Z,970.95
2022-09-28T04:19:21.955Z,970.98
2022-09-28T04:20:21.955Z,970.97
2022-09-28T04:21:21.936Z,970.95
2022-09-28T04:22:21.952Z,970.97
2022-09-28T04:23:21.931Z,970.98
2022-09-28T04:24:21.895Z,970.90
2022-09-28T04:25:21.896Z,970.98
2022-09-28T04:26:21.874Z,970.93
2022-09-28T04:27:21.862Z,970.88
2022-09-28T04:28:21.853Z,970.92
2022-09-28T04:29:21.974Z,970.97
2022-09-28T04:30:21.819Z,970.97
2022-09-28T04:31:21.881Z,970.99
2022-09-28T04:32:21.809Z,970.98
2022-09-28T04:33:21.810Z,970.99
2022-09-28T04:34:21.769Z,970.97
2022-09-28T04:35:21.749Z,970.93
2022-09-28T04:36:21.768Z,970.97
2022-09-28T04:37:21.746Z,971.01
2022-09-28T04:38:41.502Z,971.02
2022-09-28T04:39:22.710Z,971.00
2022-09-28T04:40:21.797Z,970.98
2022-09-28T04:41:21.689Z,971.02
2022-09-28T04:42:21.684Z,970.99
2022-09-28T04:43:21.646Z,971.01
2022-09-28T04:44:21.669Z,970.99
2022-09-28T04:45:21.638Z,970.98
2022-09-28T04:46:21.614Z,970.98
2022-09-28T04:47:21.602Z,971.05
2022-09-28T04:48:21.594Z,971.06
2022-09-28T04:49:21.596Z,971.11
2022-09-28T04:50:21.563Z,971.07
2022-09-28T04:51:21.544Z,971.10
2022-09-28T04:52:21.573Z,971.07
2022-09-28T04:53:21.532Z,971.07
2022-09-28T04:54:21.554Z,971.09
2022-09-28T04:55:21.494Z,971.06
2022-09-28T04:56:21.484Z,971.01
2022-09-28T04:57:21.478Z,971.02
2022-09-28T04:58:21.472Z,971.08
2022-09-28T04:59:21.452Z,971.11
2022-09-28T05:00:21.472Z,971.10
2022-09-28T05:01:21.467Z,971.14
2022-09-28T05:02:21.604Z,971.18
2022-09-28T05:03:21.407Z,971.18
2022-09-28T05:04:25.757Z,971.17
2022-09-28T05:05:21.368Z,971.17
2022-09-28T05:06:21.382Z,971.18
2022-09-28T05:07:21.368Z,971.17
2022-09-28T05:08:21.361Z,971.19
2022-09-28T05:09:21.330Z,971.20
2022-09-28T05:10:21.325Z,971.22
2022-09-28T05:11:21.301Z,971.24
2022-09-28T05:12:21.293Z,971.29
2022-09-28T05:13:21.289Z,971.30
2022-09-28T05:14:21.288Z,971.25
2022-09-28T05:15:21.237Z,971.29
2022-09-28T05:16:21.276Z,971.31
2022-09-28T05:17:21.216Z,971.31
2022-09-28T05:18:21.197Z,971.28
2022-09-28T05:19:21.211Z,971.35
2022-09-28T05:20:21.176Z,971.31
2022-09-28T05:21:21.176Z,971.31
2022-09-28T05:22:21.179Z,971.33
2022-09-28T05:23:21.147Z,971.29
2022-09-28T05:24:21.149Z,971.32
2022-09-28T05:25:21.148Z,971.38
2022-09-28T05:26:21.104Z,971.34
2022-09-28T05:27:21.141Z,971.33
2022-09-28T05:28:21.084Z,971.31
2022-09-28T05:29:21.053Z,971.32
2022-09-28T05:30:21.056Z,971.27
2022-09-28T05:31:21.071Z,971.28
2022-09-28T05:32:21.051Z,971.26
2022-09-28T05:33:21.012Z,971.31
2022-09-28T05:34:21.036Z,971.31
2022-09-28T05:35:20.983Z,971.30
2022-09-28T05:36:20.999Z,971.33
2022-09-28T05:37:20.976Z,971.31
2022-09-28T05:38:20.991Z,971.34
2022-09-28T05:39:20.930Z,971.26
2022-09-28T05:40:20.967Z,971.27
2022-09-28T05:41:20.925Z,971.30
2022-09-28T05:42:20.891Z,971.30
2022-09-28T05:43:20.891Z,971.31
2022-09-28T05:44:20.934Z,971.31
2022-09-28T05:45:20.888Z,971.28
2022-09-28T05:46:20.928Z,971.26
2022-09-28T05:47:20.819Z,971.28
2022-09-28T05:48:20.818Z,971.29
2022-09-28T05:49:20.817Z,971.26
2022-09-28T05:50:20.799Z,971.27
2022-09-28T05:51:20.799Z,971.30
2022-09-28T05:52:20.766Z,971.31
2022-09-28T05:53:20.769Z,971.30
2022-09-28T05:54:20.926Z,971.29
2022-09-28T05:55:20.767Z,971.27
2022-09-28T05:56:20.725Z,971.31
2022-09-28T05:57:20.705Z,971.40
2022-09-28T05:58:20.688Z,971.42
2022-09-28T05:59:20.676Z,971.56
2022-09-28T06:00:20.654Z,971.56
2022-09-28T06:01:20.720Z,971.54
2022-09-28T06:02:20.699Z,971.53
2022-09-28T06:03:20.749Z,971.56
2022-09-28T06:04:20.609Z,971.56
2022-09-28T06:05:20.593Z,971.61
2022-09-28T06:06:20.592Z,971.60
2022-09-28T06:07:20.599Z,971.62
2022-09-28T06:08:20.553Z,971.64
2022-09-28T06:09:25.169Z,971.62
2022-09-28T06:10:21.612Z,971.65
2022-09-28T06:11:20.540Z,971.65
2022-09-28T06:12:20.513Z,971.62
2022-09-28T06:13:20.493Z,971.67
2022-09-28T06:14:20.492Z,971.68
2022-09-28T06:15:20.481Z,971.72
2022-09-28T06:16:20.500Z,971.74
2022-09-28T06:17:20.444Z,971.76
2022-09-28T06:18:20.440Z,971.78
2022-09-28T06:19:20.411Z,971.75
2022-09-28T06:20:20.430Z,971.76
2022-09-28T06:21:20.416Z,971.77
2022-09-28T06:22:20.427Z,971.77
2022-09-28T06:23:20.370Z,971.73
2022-09-28T06:24:20.369Z,971.74
2022-09-28T06:25:20.344Z,971.79
2022-09-28T06:26:20.328Z,971.80
2022-09-28T06:27:20.317Z,971.80
2022-09-28T06:28:20.298Z,971.79
2022-09-28T06:29:20.319Z,971.79
2022-09-28T06:30:20.285Z,971.82
2022-09-28T06:31:20.273Z,971.84
2022-09-28T06:32:20.255Z,971.81
2022-09-28T06:33:20.260Z,971.85
2022-09-28T06:34:20.217Z,971.86
2022-09-28T06:35:20.214Z,971.90
2022-09-28T06:36:20.206Z,971.88
2022-09-28T06:37:20.191Z,971.89
2022-09-28T06:38:20.169Z,971.93
2022-09-28T06:39:20.182Z,971.97
2022-09-28T06:40:20.190Z,971.97
2022-09-28T06:41:20.166Z,971.99
2022-09-28T06:42:20.138Z,972.01
2022-09-28T06:43:20.142Z,971.97
2022-09-28T06:44:20.092Z,971.99
2022-09-28T06:45:20.102Z,972.00
2022-09-28T06:46:20.146Z,971.97
2022-09-28T06:47:20.088Z,972.02
2022-09-28T06:48:20.041Z,972.00
2022-09-28T06:49:20.129Z,972.03
2022-09-28T06:50:20.017Z,971.99
2022-09-28T06:51:20.039Z,972.02
2022-09-28T06:52:19.984Z,972.04
2022-09-28T06:53:19.998Z,972.05
2022-09-28T06:54:19.988Z,972.07
2022-09-28T06:55:19.967Z,972.09
2022-09-28T06:56:19.963Z,972.10
2022-09-28T06:57:19.975Z,972.13
2022-09-28T06:58:19.910Z,972.15
2022-09-28T06:59:19.937Z,972.12
2022-09-28T07:00:19.887Z,972.18
2022-09-28T07:01:19.971Z,972.15
2022-09-28T07:02:19.878Z,972.15
2022-09-28T07:03:19.876Z,972.09
2022-09-28T07:04:19.839Z,972.08
2022-09-28T07:05:19.829Z,972.10
2022-09-28T07:06:19.837Z,972.12
2022-09-28T07:07:19.829Z,972.12
2022-09-28T07:08:19.786Z,972.14
2022-09-28T07:09:31.266Z,972.14
2022-09-28T07:10:20.787Z,972.11
2022-09-28T07:11:19.766Z,972.16
2022-09-28T07:12:19.725Z,972.15
2022-09-28T07:13:47.515Z,972.21
2022-09-28T07:14:38.489Z,972.19
2022-09-28T07:15:20.774Z,972.22
2022-09-28T07:16:24.116Z,972.25
2022-09-28T07:17:20.713Z,972.27
2022-09-28T07:18:19.724Z,972.30
2022-09-28T07:19:19.653Z,972.33
2022-09-28T07:20:20.020Z,972.28
2022-09-28T07:21:28.688Z,972.34
2022-09-28T07:22:34.473Z,972.37
2022-09-28T07:23:20.592Z,972.33
2022-09-28T07:24:20.092Z,972.39
2022-09-28T07:25:20.268Z,972.40
2022-09-28T07:26:22.907Z,972.40
2022-09-28T07:27:19.674Z,972.40
2022-09-28T07:28:19.577Z,972.47
2022-09-28T07:29:19.509Z,972.45
2022-09-28T07:30:19.520Z,972.42
2022-09-28T07:31:19.577Z,972.47
2022-09-28T07:32:19.595Z,972.44
2022-09-28T07:33:19.534Z,972.48
2022-09-28T07:34:19.546Z,972.47
2022-09-28T07:35:19.509Z,972.51
2022-09-28T07:36:19.447Z,972.52
2022-09-28T07:37:19.485Z,972.57
2022-09-28T07:38:19.395Z,972.56
2022-09-28T07:39:19.406Z,972.56
2022-09-28T07:40:19.450Z,972.61
2022-09-28T07:41:19.387Z,972.61
2022-09-28T07:42:19.374Z,972.61
2022-09-28T07:43:19.345Z,972.63
2022-09-28T07:44:19.356Z,972.64
2022-09-28T07:45:19.326Z,972.66
2022-09-28T07:46:19.382Z,972.68
2022-09-28T07:47:19.293Z,972.70
2022-09-28T07:48:19.264Z,972.78
2022-09-28T07:49:19.474Z,972.69
2022-09-28T07:50:19.265Z,972.74
2022-09-28T07:51:19.292Z,972.71
2022-09-28T07:52:19.229Z,972.74
2022-09-28T07:53:19.225Z,972.74
2022-09-28T07:54:19.206Z,972.75
2022-09-28T07:55:19.224Z,972.78
2022-09-28T07:56:19.181Z,972.78
2022-09-28T07:57:19.244Z,972.81
2022-09-28T07:58:19.212Z,972.82
2022-09-28T07:59:19.239Z,972.84
2022-09-28T08:00:19.140Z,972.85
2022-09-28T08:01:19.286Z,972.87
2022-09-28T08:02:19.212Z,972.87
2022-09-28T08:03:19.461Z,972.84
2022-09-28T08:04:19.069Z,972.89
2022-09-28T08:05:19.049Z,972.92
2022-09-28T08:06:19.113Z,972.93
2022-09-28T08:07:23.521Z,972.97
2022-09-28T08:08:19.119Z,972.99
2022-09-28T08:09:19.156Z,972.97
2022-09-28T08:10:19.001Z,972.96
2022-09-28T08:11:19.014Z,973.01
2022-09-28T08:12:18.987Z,973.09
2022-09-28T08:13:20.397Z,972.98
2022-09-28T08:14:19.042Z,973.03
2022-09-28T08:15:18.964Z,973.01
2022-09-28T08:16:19.048Z,973.08
2022-09-28T08:17:18.947Z,973.08
2022-09-28T08:18:18.889Z,973.11
2022-09-28T08:19:19.160Z,973.14
2022-09-28T08:20:18.870Z,973.10
2022-09-28T08:21:18.855Z,973.14
2022-09-28T08:22:18.874Z,973.12
2022-09-28T08:23:18.834Z,973.17
2022-09-28T08:24:18.862Z,973.12
2022-09-28T08:25:18.817Z,973.13
2022-09-28T08:26:18.786Z,973.11
2022-09-28T08:27:18.805Z,973.14
2022-09-28T08:28:18.793Z,973.18
2022-09-28T08:29:18.791Z,973.21
2022-09-28T08:30:18.744Z,973.19
2022-09-28T08:31:18.796Z,973.23
2022-09-28T08:32:18.741Z,973.21
2022-09-28T08:33:18.719Z,973.27
2022-09-28T08:34:18.810Z,973.27
2022-09-28T08:35:18.721Z,973.32
2022-09-28T08:36:18.682Z,973.27
2022-09-28T08:37:18.650Z,973.29
2022-09-28T08:38:18.661Z,973.27
2022-09-28T08:39:18.621Z,973.26
2022-09-28T08:40:18.685Z,973.28
2022-09-28T08:41:18.603Z,973.30
2022-09-28T08:42:18.592Z,973.31
2022-09-28T08:43:18.600Z,973.35
2022-09-28T08:44:18.655Z,973.30
2022-09-28T08:45:18.538Z,973.34
2022-09-28T08:46:18.734Z,973.34
2022-09-28T08:47:18.547Z,973.39
2022-09-28T08:48:18.526Z,973.39
2022-09-28T08:49:25.547Z,973.38
2022-09-28T08:50:19.476Z,973.42
2022-09-28T08:51:18.477Z,973.41
2022-09-28T08:52:18.501Z,973.44
2022-09-28T08:53:18.499Z,973.42
2022-09-28T08:54:18.552Z,973.39
2022-09-28T08:55:18.448Z,973.31
2022-09-28T08:56:18.492Z,973.28
2022-09-28T08:57:18.406Z,973.30
2022-09-28T08:58:18.424Z,973.26
2022-09-28T08:59:18.369Z,973.29
2022-09-28T09:00:18.344Z,973.35
2022-09-28T09:01:18.373Z,973.32
2022-09-28T09:02:18.431Z,973.31
2022-09-28T09:03:18.359Z,973.30
2022-09-28T09:04:18.425Z,973.30
2022-09-28T09:05:18.312Z,973.34
2022-09-28T09:06:18.694Z,973.32
2022-09-28T09:07:18.286Z,973.39
2022-09-28T09:08:18.311Z,973.42
2022-09-28T09:09:18.240Z,973.42
2022-09-28T09:10:18.280Z,973.46
2022-09-28T09:11:18.262Z,973.51
2022-09-28T09:12:18.191Z,973.45
2022-09-28T09:13:18.194Z,973.52
2022-09-28T09:14:18.333Z,973.48
2022-09-28T09:15:18.161Z,973.47
2022-09-28T09:16:18.197Z,973.48
2022-09-28T09:17:18.131Z,973.50
2022-09-28T09:18:19.992Z,973.52
2022-09-28T09:19:18.152Z,973.51
2022-09-28T09:20:18.080Z,973.55
2022-09-28T09:21:18.386Z,973.55
2022-09-28T09:22:18.084Z,973.62
2022-09-28T09:23:18.093Z,973.57
2022-09-28T09:24:18.083Z,973.59
2022-09-28T09:25:18.040Z,973.57
2022-09-28T09:26:23.081Z,973.57
2022-09-28T09:27:19.028Z,973.58
2022-09-28T09:28:17.981Z,973.58
2022-09-28T09:29:18.007Z,973.61
2022-09-28T09:30:20.105Z,973.59
2022-09-28T09:31:22.413Z,973.58
2022-09-28T09:32:18.026Z,973.60
2022-09-28T09:33:17.956Z,973.59
2022-09-28T09:34:18.057Z,973.62
2022-09-28T09:35:19.220Z,973.62
2022-09-28T09:36:17.882Z,973.63
2022-09-28T09:37:17.870Z,973.61
2022-09-28T09:38:17.853Z,973.61
2022-09-28T09:39:17.864Z,973.65
2022-09-28T09:40:17.891Z,973.71
2022-09-28T09:41:17.828Z,973.70
2022-09-28T09:42:17.811Z,973.67
2022-09-28T09:43:18.539Z,973.67
2022-09-28T09:44:17.876Z,973.70
2022-09-28T09:45:17.764Z,973.69
2022-09-28T09:46:17.794Z,973.73
2022-09-28T09:47:17.763Z,973.72
2022-09-28T09:48:17.714Z,973.71
2022-09-28T09:49:17.741Z,973.74
2022-09-28T09:50:17.701Z,973.71
2022-09-28T09:51:17.721Z,973.74
2022-09-28T09:52:17.701Z,973.76
2022-09-28T09:53:17.675Z,973.73
2022-09-28T09:54:17.754Z,973.79
2022-09-28T09:55:17.650Z,973.76
2022-09-28T09:56:17.630Z,973.74
2022-09-28T09:57:17.634Z,973.76
2022-09-28T09:58:17.588Z,973.69
2022-09-28T09:59:17.766Z,973.73
2022-09-28T10:00:18.595Z,973.78
2022-09-28T10:01:17.608Z,973.76
2022-09-28T10:02:17.569Z,973.80
2022-09-28T10:03:17.568Z,973.77
2022-09-28T10:04:17.533Z,973.76
2022-09-28T10:05:17.516Z,973.77
2022-09-28T10:06:17.500Z,973.80
2022-09-28T10:07:17.487Z,973.80
2022-09-28T10:08:17.490Z,973.82
2022-09-28T10:09:17.548Z,973.82
2022-09-28T10:10:17.460Z,973.83
2022-09-28T10:11:17.461Z,973.82
2022-09-28T10:12:17.417Z,973.86
2022-09-28T10:13:17.432Z,973.80
2022-09-28T10:14:17.395Z,973.88
2022-09-28T10:15:17.386Z,973.88
2022-09-28T10:16:17.367Z,973.86
2022-09-28T10:17:17.374Z,973.84
2022-09-28T10:18:17.349Z,973.83
2022-09-28T10:19:17.468Z,973.84
2022-09-28T10:20:18.059Z,973.81
2022-09-28T10:21:17.307Z,973.77
2022-09-28T10:22:17.274Z,973.80
2022-09-28T10:23:17.323Z,973.79
2022-09-28T10:24:17.306Z,973.75
2022-09-28T10:25:17.250Z,973.76
2022-09-28T10:26:19.568Z,973.79
2022-09-28T10:27:17.321Z,973.76
2022-09-28T10:28:17.211Z,973.76
2022-09-28T10:29:17.292Z,973.76
2022-09-28T10:30:17.240Z,973.74
2022-09-28T10:31:17.161Z,973.76
2022-09-28T10:32:17.160Z,973.76
2022-09-28T10:33:17.140Z,973.78
2022-09-28T10:34:17.318Z,973.82
2022-09-28T10:35:17.122Z,973.79
2022-09-28T10:36:17.115Z,973.84
2022-09-28T10:37:17.247Z,973.89
2022-09-28T10:38:17.069Z,973.90
2022-09-28T10:39:17.090Z,973.90
2022-09-28T10:40:17.125Z,973.93
2022-09-28T10:41:17.051Z,973.90
2022-09-28T10:42:17.049Z,973.89
2022-09-28T10:43:17.029Z,973.92
2022-09-28T10:44:16.988Z,973.88
2022-09-28T10:45:16.996Z,973.92
2022-09-28T10:46:17.079Z,973.97
2022-09-28T10:47:16.979Z,973.96
2022-09-28T10:48:16.966Z,973.93
2022-09-28T10:49:16.926Z,973.93
2022-09-28T10:50:16.943Z,973.94
2022-09-28T10:51:16.933Z,973.98
2022-09-28T10:52:17.006Z,973.89
2022-09-28T10:53:16.876Z,973.90
2022-09-28T10:54:16.903Z,973.88
2022-09-28T10:55:16.854Z,973.89
2022-09-28T10:56:16.929Z,973.87
2022-09-28T10:57:16.865Z,973.84
2022-09-28T10:58:16.815Z,973.88
2022-09-28T10:59:16.804Z,973.89
2022-09-28T11:00:16.832Z,973.86
2022-09-28T11:01:16.918Z,973.88
2022-09-28T11:02:16.834Z,973.87
2022-09-28T11:03:16.772Z,973.84
2022-09-28T11:04:16.761Z,973.83
2022-09-28T11:05:16.732Z,973.82
2022-09-28T11:06:16.721Z,973.84
2022-09-28T11:07:17.404Z,973.86
2022-09-28T11:08:16.723Z,973.84
2022-09-28T11:09:16.691Z,973.84
2022-09-28T11:10:16.735Z,973.82
2022-09-28T11:11:16.643Z,973.81
2022-09-28T11:12:16.632Z,973.79
2022-09-28T11:13:16.649Z,973.81
2022-09-28T11:14:16.620Z,973.77
2022-09-28T11:15:16.663Z,973.82
2022-09-28T11:16:16.656Z,973.76
2022-09-28T11:17:16.588Z,973.78
2022-09-28T11:18:16.587Z,973.82
2022-09-28T11:19:16.581Z,973.82
2022-09-28T11:20:16.600Z,973.79
2022-09-28T11:21:16.516Z,973.80
2022-09-28T11:22:16.538Z,973.82
2022-09-28T11:23:16.502Z,973.83
2022-09-28T11:24:19.082Z,973.91
2022-09-28T11:25:16.465Z,973.90
2022-09-28T11:26:18.827Z,973.92
2022-09-28T11:27:16.445Z,973.88
2022-09-28T11:28:16.470Z,973.90
2022-09-28T11:29:16.470Z,973.94
2022-09-28T11:30:16.466Z,974.02
2022-09-28T11:31:16.583Z,973.95
2022-09-28T11:32:16.384Z,974.05
2022-09-28T11:33:16.375Z,974.04
2022-09-28T11:34:16.416Z,974.00
2022-09-28T11:35:16.352Z,974.01
2022-09-28T11:36:16.377Z,973.98
2022-09-28T11:37:16.596Z,973.98
2022-09-28T11:38:16.292Z,973.95
2022-09-28T11:39:16.307Z,973.95
2022-09-28T11:40:16.405Z,973.93
2022-09-28T11:41:16.263Z,973.87
2022-09-28T11:42:16.685Z,973.86
2022-09-28T11:43:16.893Z,973.88
2022-09-28T11:44:16.255Z,973.87
2022-09-28T11:45:16.240Z,973.91
2022-09-28T11:46:16.291Z,973.87
2022-09-28T11:47:16.180Z,973.89
2022-09-28T11:48:16.299Z,973.88
2022-09-28T11:49:16.189Z,973.95
2022-09-28T11:50:20.037Z,973.94
2022-09-28T11:51:17.267Z,973.89
2022-09-28T11:52:16.148Z,973.94
2022-09-28T11:53:16.099Z,973.93
2022-09-28T11:54:16.158Z,973.95
2022-09-28T11:55:16.116Z,973.88
2022-09-28T11:56:16.107Z,973.85
2022-09-28T11:57:16.073Z,973.84
2022-09-28T11:58:16.157Z,973.85
2022-09-28T11:59:16.047Z,973.87
2022-09-28T12:00:16.083Z,973.89
2022-09-28T12:01:18.894Z,973.85
2022-09-28T12:02:16.103Z,973.86
2022-09-28T12:03:16.036Z,973.87
2022-09-28T12:04:16.002Z,973.86
2022-09-28T12:05:20.729Z,973.86
2022-09-28T12:06:16.934Z,973.86
2022-09-28T12:07:15.943Z,973.82
2022-09-28T12:08:15.918Z,973.82
2022-09-28T12:09:15.944Z,973.86
2022-09-28T12:10:15.895Z,973.86
2022-09-28T12:11:15.872Z,973.82
2022-09-28T12:12:15.873Z,973.80
2022-09-28T12:13:15.853Z,973.78
2022-09-28T12:14:15.854Z,973.78
2022-09-28T12:15:15.823Z,973.76
2022-09-28T12:17:20.135Z,973.82
2022-09-28T12:18:15.880Z,973.84
2022-09-28T12:19:15.804Z,973.86
2022-09-28T12:20:16.483Z,973.86
2022-09-28T12:21:15.748Z,973.84
2022-09-28T12:22:15.763Z,973.85
2022-09-28T12:23:15.939Z,973.90
2022-09-28T12:24:15.754Z,973.88
2022-09-28T12:25:15.732Z,973.88
2022-09-28T12:26:15.691Z,973.89
2022-09-28T12:27:15.858Z,973.88
2022-09-28T12:28:15.649Z,973.88
2022-09-28T12:29:15.663Z,973.91